Station Historical Data
Daily Summary for May 7, 2012 Units:  English    Metric   Both
« Previous Day
Next Day »
Daily Weekly Monthly Yearly Custom
  High: Low: Average:
Temperature: 73.5 °F 62.7 °F 68 °F
Dew Point: 67.6 °F 60.7 °F 64.4 °F
Humidity: 93% 76% 88%
Wind Speed: 12.0mph 0.0mph 2.8mph
Wind Gust: 19.0mph - -
Wind- - South
Pressure: 29.92 in 29.77 in -
Precipitation: 0.22 in    
Historical Graphs
 
 
Tabular Data for May 7, 2012
Time Temperature Dew Point Pressure Wind Wind Speed Wind Gust Humidity Rainfall Rate (Hourly) Conditions
00:00 68.9 °F 63.2 °F 29.87 in South 1.0 mph 2.0 mph 82% 0.00 in
00:01 68.8 °F 63.1 °F 29.87 in South 1.0 mph 2.0 mph 82% 0.00 in
00:06 68.3 °F 62.9 °F 29.86 in SSW 1.0 mph 2.0 mph 83% 0.00 in
00:11 68.2 °F 63.2 °F 29.85 in SSE 1.0 mph 2.0 mph 84% 0.00 in
00:16 68.2 °F 63.2 °F 29.85 in SSW 1.0 mph 2.0 mph 84% 0.00 in
00:21 68.0 °F 63.0 °F 29.85 in SSE 2.0 mph 3.0 mph 84% 0.00 in
00:26 68.0 °F 63.0 °F 29.85 in SSE 1.0 mph 4.0 mph 84% 0.00 in
00:31 68.3 °F 63.3 °F 29.85 in South 2.0 mph 5.0 mph 84% 0.00 in
00:36 68.4 °F 63.0 °F 29.84 in South 3.0 mph 6.0 mph 83% 0.00 in
00:41 68.4 °F 63.4 °F 29.84 in SE 5.0 mph 6.0 mph 84% 0.00 in
00:46 68.3 °F 63.3 °F 29.84 in SE 3.0 mph 5.0 mph 84% 0.00 in
00:51 68.3 °F 63.3 °F 29.84 in SSE 4.0 mph 5.0 mph 84% 0.00 in
00:56 68.1 °F 63.4 °F 29.84 in SSW 3.0 mph 4.0 mph 85% 0.00 in
01:01 68.1 °F 63.4 °F 29.85 in SE 1.0 mph 3.0 mph 85% 0.00 in
01:06 68.2 °F 63.5 °F 29.84 in SSW 3.0 mph 3.0 mph 85% 0.00 in
01:11 68.2 °F 63.5 °F 29.85 in SSE 1.0 mph 3.0 mph 85% 0.00 in
01:16 68.1 °F 63.4 °F 29.85 in Calm   2.0 mph 85% 0.00 in
01:21 67.9 °F 63.2 °F 29.85 in Calm     85% 0.00 in
01:26 67.6 °F 63.6 °F 29.86 in Calm     87% 0.00 in
01:31 67.2 °F 63.2 °F 29.86 in Calm     87% 0.00 in
01:36 66.8 °F 62.8 °F 29.86 in Calm     87% 0.00 in
01:41 66.4 °F 62.7 °F 29.87 in South 1.0 mph 1.0 mph 88% 0.00 in
01:47 66.2 °F 63.2 °F 29.87 in SE 1.0 mph 1.0 mph 90% 0.00 in
01:52 66.2 °F 63.2 °F 29.87 in East 2.0 mph 3.0 mph 90% 0.00 in
01:57 66.2 °F 62.9 °F 29.87 in Calm     89% 0.00 in
02:02 65.9 °F 62.9 °F 29.87 in ENE 1.0 mph 2.0 mph 90% 0.00 in
02:07 65.6 °F 62.9 °F 29.88 in Calm   2.0 mph 91% 0.00 in
02:12 65.3 °F 62.6 °F 29.88 in SW 2.0 mph 3.0 mph 91% 0.00 in
02:17 65.5 °F 63.1 °F 29.88 in SSW 2.0 mph 2.0 mph 92% 0.00 in
02:22 65.6 °F 62.9 °F 29.87 in SSE 1.0 mph 2.0 mph 91% 0.00 in
02:27 65.5 °F 62.8 °F 29.87 in SSE 2.0 mph 2.0 mph 91% 0.00 in
02:32 65.4 °F 62.7 °F 29.87 in Calm   1.0 mph 91% 0.00 in
02:37 65.4 °F 63.0 °F 29.87 in Calm   2.0 mph 92% 0.00 in
02:42 65.2 °F 62.8 °F 29.87 in Calm   1.0 mph 92% 0.00 in
02:47 65.3 °F 62.9 °F 29.87 in West 1.0 mph 2.0 mph 92% 0.00 in
02:52 65.3 °F 62.9 °F 29.88 in WSW 1.0 mph 3.0 mph 92% 0.00 in
02:57 65.4 °F 63.0 °F 29.88 in West 1.0 mph 2.0 mph 92% 0.00 in
03:02 65.6 °F 63.2 °F 29.88 in WSW 1.0 mph 3.0 mph 92% 0.00 in
03:07 65.7 °F 63.3 °F 29.88 in WSW 2.0 mph 4.0 mph 92% 0.00 in
03:08 65.7 °F 63.3 °F 29.88 in SW 2.0 mph 4.0 mph 92% 0.00 in
03:13 65.6 °F 63.2 °F 29.88 in SW 3.0 mph 4.0 mph 92% 0.00 in
03:18 65.5 °F 63.1 °F 29.87 in South 3.0 mph 4.0 mph 92% 0.00 in
03:23 65.5 °F 63.1 °F 29.87 in SE 2.0 mph 2.0 mph 92% 0.00 in
03:28 65.4 °F 63.0 °F 29.87 in SE 2.0 mph 2.0 mph 92% 0.00 in
03:33 65.3 °F 62.9 °F 29.87 in SSE 1.0 mph 1.0 mph 92% 0.00 in
03:38 65.2 °F 62.8 °F 29.87 in WSW 1.0 mph 1.0 mph 92% 0.00 in
03:43 65.1 °F 62.7 °F 29.87 in SSW 3.0 mph 3.0 mph 92% 0.00 in
03:48 65.1 °F 62.7 °F 29.87 in SW 5.0 mph 6.0 mph 92% 0.00 in
03:53 65.2 °F 62.8 °F 29.86 in SW 4.0 mph 5.0 mph 92% 0.00 in
03:58 65.2 °F 62.8 °F 29.86 in SSW 3.0 mph 5.0 mph 92% 0.00 in
04:03 65.3 °F 62.9 °F 29.86 in South 3.0 mph 4.0 mph 92% 0.00 in
04:08 65.3 °F 62.9 °F 29.86 in South 4.0 mph 4.0 mph 92% 0.00 in
04:13 65.2 °F 62.8 °F 29.86 in South 3.0 mph 4.0 mph 92% 0.00 in
04:18 65.0 °F 62.6 °F 29.86 in South 2.0 mph 4.0 mph 92% 0.00 in
04:23 65.0 °F 62.6 °F 29.86 in South 3.0 mph 4.0 mph 92% 0.00 in
04:28 65.0 °F 62.6 °F 29.86 in SSW 2.0 mph 5.0 mph 92% 0.00 in
04:33 65.1 °F 62.7 °F 29.86 in South 3.0 mph 5.0 mph 92% 0.00 in
04:38 65.1 °F 62.7 °F 29.85 in SSW 2.0 mph 5.0 mph 92% 0.00 in
04:43 65.1 °F 62.7 °F 29.85 in SSE 2.0 mph 3.0 mph 92% 0.00 in
04:48 65.0 °F 62.6 °F 29.86 in SSE 2.0 mph 3.0 mph 92% 0.00 in
04:53 64.9 °F 62.5 °F 29.86 in SE 3.0 mph 3.0 mph 92% 0.00 in
04:58 64.7 °F 62.3 °F 29.86 in SSW 2.0 mph 3.0 mph 92% 0.00 in
05:03 64.7 °F 62.3 °F 29.86 in South 2.0 mph 3.0 mph 92% 0.00 in
05:08 64.7 °F 62.3 °F 29.86 in SSE 3.0 mph 3.0 mph 92% 0.00 in
05:14 64.6 °F 62.2 °F 29.86 in SSE 1.0 mph 2.0 mph 92% 0.00 in
05:19 64.5 °F 62.4 °F 29.86 in SSE 3.0 mph 3.0 mph 93% 0.00 in
05:24 64.5 °F 62.4 °F 29.85 in SSE 2.0 mph 2.0 mph 93% 0.00 in
05:29 64.4 °F 62.3 °F 29.85 in SSE 1.0 mph 2.0 mph 93% 0.00 in
05:34 64.3 °F 62.2 °F 29.85 in ESE 2.0 mph 2.0 mph 93% 0.00 in
05:39 64.1 °F 62.0 °F 29.85 in SE 4.0 mph 4.0 mph 93% 0.00 in
05:44 64.1 °F 62.0 °F 29.85 in SE 2.0 mph 4.0 mph 93% 0.00 in
05:49 64.0 °F 61.9 °F 29.85 in SE 4.0 mph 4.0 mph 93% 0.00 in
05:54 63.9 °F 61.8 °F 29.85 in South 3.0 mph 4.0 mph 93% 0.00 in
05:59 63.8 °F 61.7 °F 29.84 in SE 3.0 mph 4.0 mph 93% 0.00 in
06:04 63.7 °F 61.6 °F 29.84 in SE 3.0 mph 3.0 mph 93% 0.00 in
06:09 63.7 °F 61.6 °F 29.84 in SSE 4.0 mph 6.0 mph 93% 0.00 in
06:14 63.7 °F 61.3 °F 29.84 in ESE 2.0 mph 4.0 mph 92% 0.00 in
06:19 63.6 °F 61.2 °F 29.85 in SSE 2.0 mph 3.0 mph 92% 0.00 in
06:24 63.5 °F 61.1 °F 29.85 in SE 1.0 mph 1.0 mph 92% 0.00 in
06:29 63.4 °F 61.0 °F 29.85 in Calm   1.0 mph 92% 0.00 in
06:34 63.3 °F 60.9 °F 29.85 in Calm     92% 0.00 in
06:39 63.1 °F 60.7 °F 29.86 in Calm     92% 0.00 in
06:44 63.0 °F 61.0 °F 29.86 in Calm     93% 0.00 in
06:49 62.9 °F 60.8 °F 29.86 in Calm     93% 0.00 in
06:54 62.9 °F 60.8 °F 29.86 in Calm     93% 0.00 in
06:59 63.0 °F 61.0 °F 29.86 in ENE 2.0 mph 2.0 mph 93% 0.00 in
07:05 62.9 °F 60.8 °F 29.86 in ENE 1.0 mph 2.0 mph 93% 0.00 in
07:10 62.8 °F 60.8 °F 29.87 in SE 1.0 mph 1.0 mph 93% 0.00 in
07:15 62.7 °F 60.7 °F 29.86 in Calm   1.0 mph 93% 0.00 in
07:20 62.8 °F 60.8 °F 29.87 in Calm   1.0 mph 93% 0.00 in
07:25 62.9 °F 60.8 °F 29.87 in Calm     93% 0.00 in
07:30 63.2 °F 61.2 °F 29.87 in SE 1.0 mph 1.0 mph 93% 0.00 in
07:35 63.4 °F 61.3 °F 29.87 in Calm     93% 0.00 in
07:40 63.8 °F 61.7 °F 29.86 in Calm     93% 0.00 in
07:45 64.4 °F 62.3 °F 29.86 in East 1.0 mph 2.0 mph 93% 0.00 in
07:50 64.9 °F 62.5 °F 29.86 in ESE 1.0 mph 2.0 mph 92% 0.00 in
07:55 65.3 °F 62.6 °F 29.86 in Calm   1.0 mph 91% 0.00 in
08:00 65.6 °F 62.9 °F 29.85 in East 1.0 mph 1.0 mph 91% 0.00 in
08:05 65.7 °F 62.7 °F 29.85 in ESE 2.0 mph 2.0 mph 90% 0.00 in
08:10 66.1 °F 63.1 °F 29.85 in ESE 4.0 mph 4.0 mph 90% 0.00 in
08:15 66.5 °F 63.5 °F 29.85 in ESE 2.0 mph 2.0 mph 90% 0.00 in
08:20 67.0 °F 63.7 °F 29.86 in SSW 3.0 mph 3.0 mph 89% 0.00 in
08:25 67.5 °F 63.8 °F 29.86 in SE 1.0 mph 3.0 mph 88% 0.00 in
08:30 68.2 °F 64.5 °F 29.86 in SSE 3.0 mph 3.0 mph 88% 0.00 in
08:33 68.3 °F 64.3 °F 29.86 in SSE 4.0 mph 4.0 mph 87% 0.00 in
08:38 68.6 °F 63.9 °F 29.87 in SE 1.0 mph 5.0 mph 85% 0.00 in
08:43 69.2 °F 64.5 °F 29.87 in SE 2.0 mph 4.0 mph 85% 0.00 in
08:48 69.4 °F 64.4 °F 29.88 in ESE 3.0 mph 5.0 mph 84% 0.00 in
08:53 69.8 °F 64.8 °F 29.88 in SE 1.0 mph 3.0 mph 84% 0.00 in
08:58 70.0 °F 64.6 °F 29.88 in ESE 2.0 mph 4.0 mph 83% 0.00 in
09:03 70.1 °F 64.4 °F 29.88 in ESE 2.0 mph 5.0 mph 82% 0.00 in
09:08 70.5 °F 65.1 °F 29.88 in SE 3.0 mph 4.0 mph 83% 0.00 in
09:13 70.9 °F 65.1 °F 29.88 in SE 4.0 mph 6.0 mph 82% 0.00 in
09:18 70.8 °F 64.3 °F 29.89 in ESE 4.0 mph 5.0 mph 80% 0.00 in
09:23 71.0 °F 64.2 °F 29.89 in SSE 2.0 mph 5.0 mph 79% 0.00 in
09:28 71.4 °F 65.6 °F 29.89 in SE 1.0 mph 2.0 mph 82% 0.00 in
09:33 71.6 °F 65.1 °F 29.89 in ESE 2.0 mph 4.0 mph 80% 0.00 in
09:38 71.6 °F 64.8 °F 29.89 in SE 3.0 mph 3.0 mph 79% 0.00 in
09:43 71.3 °F 64.8 °F 29.89 in SE 3.0 mph 4.0 mph 80% 0.00 in
09:48 70.8 °F 64.3 °F 29.89 in SE 3.0 mph 4.0 mph 80% 0.00 in
09:50 70.7 °F 64.2 °F 29.89 in SE 4.0 mph 4.0 mph 80% 0.00 in
09:55 70.3 °F 64.2 °F 29.89 in East 3.0 mph 3.0 mph 81% 0.00 in
10:00 70.0 °F 63.9 °F 29.89 in ESE 4.0 mph 5.0 mph 81% 0.00 in
10:05 69.7 °F 64.7 °F 29.89 in East 2.0 mph 3.0 mph 84% 0.00 in
10:10 69.6 °F 64.9 °F 29.89 in ESE 2.0 mph 4.0 mph 85% 0.00 in
10:15 69.3 °F 64.6 °F 29.89 in ESE 2.0 mph 5.0 mph 85% 0.00 in
10:20 69.2 °F 64.8 °F 29.89 in ESE 4.0 mph 4.0 mph 86% 0.00 in
10:25 69.2 °F 64.8 °F 29.89 in ESE 5.0 mph 6.0 mph 86% 0.00 in
10:30 69.3 °F 64.9 °F 29.89 in ESE 3.0 mph 6.0 mph 86% 0.00 in
10:32 69.3 °F 64.9 °F 29.89 in ESE 4.0 mph 6.0 mph 86% 0.00 in
10:37 69.4 °F 65.4 °F 29.89 in SE 3.0 mph 5.0 mph 87% 0.00 in
10:42 69.6 °F 65.6 °F 29.89 in SE 3.0 mph 4.0 mph 87% 0.00 in
10:47 69.8 °F 65.8 °F 29.90 in ESE 3.0 mph 4.0 mph 87% 0.00 in
10:52 69.9 °F 65.9 °F 29.91 in SE 2.0 mph 3.0 mph 87% 0.00 in
10:57 70.0 °F 66.0 °F 29.91 in SE 1.0 mph 3.0 mph 87% 0.00 in
11:02 70.1 °F 66.1 °F 29.91 in SE 4.0 mph 5.0 mph 87% 0.00 in
11:07 70.0 °F 66.0 °F 29.91 in SE 4.0 mph 6.0 mph 87% 0.00 in
11:12 70.0 °F 66.0 °F 29.91 in SSE 3.0 mph 4.0 mph 87% 0.00 in
11:17 70.1 °F 66.1 °F 29.92 in SE 4.0 mph 6.0 mph 87% 0.00 in
11:22 70.2 °F 66.2 °F 29.92 in SSW 2.0 mph 5.0 mph 87% 0.00 in
11:27 70.3 °F 66.6 °F 29.92 in SW 4.0 mph 5.0 mph 88% 0.00 in
11:32 70.6 °F 66.9 °F 29.92 in SSE 5.0 mph 6.0 mph 88% 0.00 in
11:37 70.5 °F 66.4 °F 29.92 in SE 6.0 mph 9.0 mph 87% 0.00 in
11:42 70.4 °F 66.3 °F 29.92 in SSE 6.0 mph 9.0 mph 87% 0.00 in
11:47 70.3 °F 66.2 °F 29.92 in SE 6.0 mph 9.0 mph 87% 0.00 in
11:52 70.2 °F 66.5 °F 29.92 in ESE 4.0 mph 7.0 mph 88% 0.00 in
11:57 70.3 °F 66.6 °F 29.92 in SE 4.0 mph 5.0 mph 88% 0.00 in
12:02 70.6 °F 66.6 °F 29.92 in SSE 5.0 mph 6.0 mph 87% 0.00 in
12:07 71.0 °F 66.3 °F 29.92 in SE 2.0 mph 5.0 mph 85% 0.00 in
12:12 71.7 °F 65.9 °F 29.92 in SSW 2.0 mph 5.0 mph 82% 0.00 in
12:17 72.3 °F 67.2 °F 29.92 in SW 4.0 mph 6.0 mph 84% 0.00 in
12:23 73.1 °F 66.9 °F 29.92 in South 6.0 mph 7.0 mph 81% 0.00 in
12:28 73.3 °F 65.3 °F 29.92 in SSE 5.0 mph 6.0 mph 76% 0.00 in
12:33 73.5 °F 66.6 °F 29.92 in SSE 4.0 mph 8.0 mph 79% 0.00 in
12:38 73.4 °F 66.5 °F 29.92 in South 5.0 mph 7.0 mph 79% 0.00 in
12:43 73.4 °F 67.6 °F 29.92 in SW 3.0 mph 7.0 mph 82% 0.00 in
12:48 73.3 °F 66.4 °F 29.92 in ESE 2.0 mph 7.0 mph 79% 0.00 in
12:53 73.1 °F 65.8 °F 29.92 in South 4.0 mph 7.0 mph 78% 0.00 in
12:58 73.1 °F 66.2 °F 29.92 in South 4.0 mph 7.0 mph 79% 0.00 in
13:03 73.0 °F 66.5 °F 29.92 in WSW 3.0 mph 4.0 mph 80% 0.00 in
13:08 72.6 °F 65.7 °F 29.92 in SSW 3.0 mph 6.0 mph 79% 0.00 in
13:13 72.4 °F 65.9 °F 29.92 in SSW 5.0 mph 6.0 mph 80% 0.00 in
13:18 72.2 °F 65.7 °F 29.92 in SSW 4.0 mph 4.0 mph 80% 0.00 in
13:23 72.3 °F 65.8 °F 29.91 in SSE 5.0 mph 6.0 mph 80% 0.00 in
13:28 72.4 °F 65.5 °F 29.90 in South 2.0 mph 3.0 mph 79% 0.00 in
13:33 72.7 °F 65.8 °F 29.90 in SW 2.0 mph 4.0 mph 79% 0.00 in
13:38 72.9 °F 65.3 °F 29.90 in Calm   2.0 mph 77% 0.00 in
13:43 73.1 °F 65.5 °F 29.90 in SW 3.0 mph 5.0 mph 77% 0.00 in
13:48 72.9 °F 65.7 °F 29.90 in West 2.0 mph 5.0 mph 78% 0.00 in
13:53 72.8 °F 65.9 °F 29.90 in West 4.0 mph 4.0 mph 79% 0.00 in
13:58 72.6 °F 66.1 °F 29.90 in West 3.0 mph 5.0 mph 80% 0.00 in
14:03 72.5 °F 66.7 °F 29.90 in West 4.0 mph 5.0 mph 82% 0.00 in
14:08 72.3 °F 66.8 °F 29.90 in NW 5.0 mph 8.0 mph 83% 0.00 in
14:13 71.8 °F 66.7 °F 29.90 in West 4.0 mph 8.0 mph 84% 0.00 in
14:18 70.9 °F 66.2 °F 29.90 in West 5.0 mph 7.0 mph 85% 0.00 in
14:24 69.5 °F 65.8 °F 29.89 in SSE 4.0 mph 4.0 mph 88% 1.00 in
14:29 68.6 °F 65.6 °F 29.87 in ESE 5.0 mph 7.0 mph 90% 0.63 in
14:34 68.4 °F 65.7 °F 29.86 in SE 4.0 mph 8.0 mph 91% 0.29 in
14:39 68.2 °F 65.5 °F 29.84 in ESE 5.0 mph 10.0 mph 91% 0.10 in
14:44 68.0 °F 65.3 °F 29.83 in SE 9.0 mph 14.0 mph 91% 0.05 in
14:49 67.9 °F 65.5 °F 29.81 in ESE 12.0 mph 19.0 mph 92% 0.04 in
14:54 67.8 °F 65.4 °F 29.80 in ESE 12.0 mph 15.0 mph 92% 0.04 in
14:55 67.7 °F 65.3 °F 29.80 in ESE 12.0 mph 15.0 mph 92% 0.04 in
15:00 67.5 °F 65.1 °F 29.80 in SE 8.0 mph 12.0 mph 92% 0.06 in
15:05 67.4 °F 65.0 °F 29.79 in SE 6.0 mph 13.0 mph 92% 0.06 in
15:10 67.5 °F 65.1 °F 29.80 in ESE 6.0 mph 12.0 mph 92% 0.04 in
15:15 67.8 °F 65.4 °F 29.80 in SSE 5.0 mph 9.0 mph 92% 0.00 in
15:20 67.9 °F 65.5 °F 29.80 in ESE 5.0 mph 10.0 mph 92% 0.00 in
15:25 68.2 °F 65.8 °F 29.81 in SE 4.0 mph 13.0 mph 92% 0.00 in
15:30 68.6 °F 66.2 °F 29.81 in SE 8.0 mph 11.0 mph 92% 0.00 in
15:35 68.8 °F 66.4 °F 29.81 in SSE 6.0 mph 11.0 mph 92% 0.00 in
15:40 69.0 °F 65.3 °F 29.81 in SE 9.0 mph 13.0 mph 88% 0.00 in
15:45 69.2 °F 65.8 °F 29.81 in SSE 8.0 mph 11.0 mph 89% 0.00 in
15:46 69.2 °F 65.8 °F 29.81 in SE 8.0 mph 11.0 mph 89% 0.00 in
15:51 69.4 °F 65.7 °F 29.81 in SSE 5.0 mph 12.0 mph 88% 0.00 in
15:56 69.9 °F 66.2 °F 29.81 in SE 6.0 mph 10.0 mph 88% 0.00 in
16:01 70.1 °F 65.7 °F 29.81 in South 9.0 mph 11.0 mph 86% 0.00 in
16:06 70.3 °F 66.2 °F 29.81 in SSW 4.0 mph 7.0 mph 87% 0.00 in
16:11 70.4 °F 65.7 °F 29.80 in SSE 4.0 mph 12.0 mph 85% 0.00 in
16:16 70.6 °F 66.6 °F 29.80 in ESE 6.0 mph 8.0 mph 87% 0.00 in
16:21 70.6 °F 66.2 °F 29.79 in SSW 5.0 mph 8.0 mph 86% 0.00 in
16:26 70.7 °F 66.0 °F 29.79 in SE 3.0 mph 8.0 mph 85% 0.00 in
16:31 70.7 °F 66.0 °F 29.78 in SSE 6.0 mph 8.0 mph 85% 0.00 in
16:36 70.8 °F 66.4 °F 29.78 in SE 5.0 mph 8.0 mph 86% 0.00 in
16:41 70.9 °F 66.5 °F 29.78 in SE 4.0 mph 8.0 mph 86% 0.00 in
16:46 70.9 °F 66.5 °F 29.78 in SE 6.0 mph 8.0 mph 86% 0.00 in
16:51 71.0 °F 66.9 °F 29.78 in SE 4.0 mph 5.0 mph 87% 0.00 in
16:56 70.9 °F 66.2 °F 29.77 in SE 3.0 mph 8.0 mph 85% 0.00 in
17:01 70.9 °F 66.5 °F 29.78 in SW 2.0 mph 5.0 mph 86% 0.00 in
17:06 70.9 °F 66.2 °F 29.79 in WSW 4.0 mph 6.0 mph 85% 0.00 in
17:11 71.1 °F 66.0 °F 29.78 in West 2.0 mph 9.0 mph 84% 0.00 in
17:17 71.5 °F 66.8 °F 29.79 in SW 2.0 mph 6.0 mph 85% 0.00 in
17:22 71.9 °F 66.8 °F 29.79 in South 3.0 mph 6.0 mph 84% 0.00 in
17:27 72.2 °F 66.8 °F 29.79 in WSW 5.0 mph 9.0 mph 83% 0.00 in
17:32 72.4 °F 66.6 °F 29.79 in SSW 2.0 mph 5.0 mph 82% 0.00 in
17:37 72.2 °F 66.4 °F 29.79 in SSW 4.0 mph 7.0 mph 82% 0.00 in
17:42 72.1 °F 67.0 °F 29.79 in SSW 3.0 mph 7.0 mph 84% 0.00 in
17:47 71.7 °F 65.9 °F 29.79 in SW 5.0 mph 9.0 mph 82% 0.00 in
17:52 71.4 °F 66.0 °F 29.79 in SW 5.0 mph 6.0 mph 83% 0.00 in
17:57 71.2 °F 66.1 °F 29.79 in SW 3.0 mph 5.0 mph 84% 0.00 in
18:02 71.2 °F 66.8 °F 29.79 in WSW 5.0 mph 6.0 mph 86% 0.00 in
18:07 71.0 °F 66.3 °F 29.79 in WSW 3.0 mph 5.0 mph 85% 0.00 in
18:12 70.9 °F 66.5 °F 29.79 in West 4.0 mph 5.0 mph 86% 0.00 in
18:17 70.6 °F 66.2 °F 29.79 in West 3.0 mph 6.0 mph 86% 0.00 in
18:22 70.3 °F 65.9 °F 29.79 in West 2.0 mph 6.0 mph 86% 0.00 in
18:27 70.2 °F 65.5 °F 29.79 in SW 3.0 mph 6.0 mph 85% 0.00 in
18:32 70.1 °F 65.7 °F 29.80 in WSW 5.0 mph 5.0 mph 86% 0.00 in
18:37 70.1 °F 66.1 °F 29.79 in WSW 4.0 mph 4.0 mph 87% 0.00 in
18:42 70.1 °F 66.1 °F 29.80 in West 3.0 mph 5.0 mph 87% 0.00 in
18:52 70.1 °F 66.1 °F 29.80 in West 3.0 mph 6.0 mph 87% 0.00 in
18:58 70.0 °F 66.0 °F 29.80 in WSW 2.0 mph 6.0 mph 87% 0.00 in
19:03 69.9 °F 65.5 °F 29.80 in West 4.0 mph 6.0 mph 86% 0.00 in
19:08 69.9 °F 65.9 °F 29.80 in WSW 5.0 mph 6.0 mph 87% 0.00 in
19:17 69.8 °F 65.8 °F 29.80 in SW 4.0 mph 5.0 mph 87% 0.00 in
19:23 69.7 °F 65.7 °F 29.80 in West 4.0 mph 4.0 mph 87% 0.00 in
19:29 69.8 °F 66.1 °F 29.80 in WSW 3.0 mph 6.0 mph 88% 0.00 in
19:35 69.7 °F 66.0 °F 29.80 in WSW 3.0 mph 4.0 mph 88% 0.00 in
19:41 69.5 °F 65.8 °F 29.80 in SW 4.0 mph 5.0 mph 88% 0.00 in
19:48 69.3 °F 65.9 °F 29.80 in SW 2.0 mph 5.0 mph 89% 0.00 in
19:53 69.1 °F 65.7 °F 29.80 in SW 3.0 mph 3.0 mph 89% 0.00 in
20:00 68.9 °F 65.8 °F 29.80 in SSW 1.0 mph 2.0 mph 90% 0.00 in
20:12 68.4 °F 65.4 °F 29.80 in Calm   2.0 mph 90% 0.00 in
20:18 68.2 °F 65.5 °F 29.80 in SW 1.0 mph 1.0 mph 91% 0.00 in
20:38 67.6 °F 65.2 °F 29.79 in SSW 2.0 mph 4.0 mph 92% 0.00 in
20:43 67.5 °F 65.1 °F 29.80 in SSW 3.0 mph 5.0 mph 92% 0.00 in
20:48 67.3 °F 64.9 °F 29.80 in SSE 2.0 mph 4.0 mph 92% 0.00 in
20:53 67.2 °F 64.8 °F 29.80 in South 2.0 mph 4.0 mph 92% 0.00 in
20:58 67.1 °F 64.7 °F 29.80 in SSW 5.0 mph 5.0 mph 92% 0.00 in
21:03 67.0 °F 64.6 °F 29.79 in South 3.0 mph 4.0 mph 92% 0.00 in
21:08 66.9 °F 64.8 °F 29.80 in SSW 5.0 mph 6.0 mph 93% 0.00 in
21:13 66.9 °F 64.8 °F 29.80 in SW 2.0 mph 5.0 mph 93% 0.00 in
21:18 66.8 °F 64.7 °F 29.80 in SW 2.0 mph 6.0 mph 93% 0.00 in
21:23 66.9 °F 64.8 °F 29.81 in SW 3.0 mph 6.0 mph 93% 0.00 in
21:28 66.9 °F 64.8 °F 29.81 in West 3.0 mph 5.0 mph 93% 0.00 in
21:33 66.8 °F 64.7 °F 29.82 in WSW 2.0 mph 4.0 mph 93% 0.00 in
21:38 66.6 °F 64.5 °F 29.82 in Calm   2.0 mph 93% 0.00 in
21:43 66.5 °F 64.4 °F 29.82 in West 1.0 mph 3.0 mph 93% 0.00 in
21:48 66.4 °F 64.3 °F 29.83 in West 2.0 mph 3.0 mph 93% 0.00 in
21:53 66.4 °F 64.3 °F 29.83 in WSW 2.0 mph 4.0 mph 93% 0.00 in
21:58 66.4 °F 64.3 °F 29.83 in WNW 2.0 mph 2.0 mph 93% 0.00 in
22:03 66.4 °F 64.3 °F 29.83 in West 1.0 mph 1.0 mph 93% 0.00 in
22:08 66.3 °F 64.2 °F 29.83 in West 1.0 mph 2.0 mph 93% 0.00 in
22:13 66.2 °F 64.1 °F 29.83 in NW 2.0 mph 2.0 mph 93% 0.00 in
22:18 66.1 °F 64.0 °F 29.83 in NW 1.0 mph 2.0 mph 93% 0.00 in
22:23 66.0 °F 63.9 °F 29.83 in Calm   1.0 mph 93% 0.00 in
22:28 66.0 °F 63.9 °F 29.83 in Calm   1.0 mph 93% 0.00 in
22:33 66.0 °F 63.9 °F 29.84 in NW 1.0 mph 1.0 mph 93% 0.00 in
22:38 65.9 °F 63.8 °F 29.84 in Calm   1.0 mph 93% 0.00 in
22:44 65.9 °F 63.8 °F 29.84 in Calm   1.0 mph 93% 0.00 in
22:48 65.9 °F 63.8 °F 29.84 in Calm   2.0 mph 93% 0.00 in
22:54 65.9 °F 63.8 °F 29.84 in WSW 1.0 mph 3.0 mph 93% 0.00 in
22:59 65.9 °F 63.8 °F 29.84 in WSW 1.0 mph 2.0 mph 93% 0.00 in
23:04 66.0 °F 63.9 °F 29.84 in WSW 2.0 mph 3.0 mph 93% 0.00 in
23:09 65.9 °F 63.8 °F 29.85 in WSW 1.0 mph 2.0 mph 93% 0.00 in
23:14 65.9 °F 63.8 °F 29.85 in WSW 1.0 mph 3.0 mph 93% 0.00 in
23:19 65.8 °F 63.7 °F 29.85 in Calm   1.0 mph 93% 0.00 in
23:24 65.8 °F 63.7 °F 29.84 in Calm   1.0 mph 93% 0.00 in
23:29 65.7 °F 63.6 °F 29.85 in Calm     93% 0.00 in
23:34 65.5 °F 63.4 °F 29.85 in Calm     93% 0.00 in
23:39 65.4 °F 63.3 °F 29.85 in Calm     93% 0.00 in
23:44 65.4 °F 63.3 °F 29.86 in WSW 1.0 mph 1.0 mph 93% 0.00 in
23:49 65.4 °F 63.3 °F 29.86 in SE 1.0 mph 1.0 mph 93% 0.00 in
23:54 65.3 °F 63.2 °F 29.86 in SSE 1.0 mph 1.0 mph 93% 0.00 in
23:59 65.3 °F 63.2 °F 29.85 in Calm   1.0 mph 93% 0.00 in
Compliments of Weather Underground